Time;durP1;ratioP1;P1;durP2;ratioP2;P2;SDS_P1;SDS_P2;PMS_P1;PMS_P2;Temp;Humidity;BMP_temperature;BMP_pressure;BME280_temperature;BME280_humidity;BME280_pressure;Samples;Min_cycle;Max_cycle;Signal;HPM_P1;HPM_P2
2021/04/30 00:01:01;;;;;;;5.80;4.77;;;10.10;41.80;;;;;;6281941;22;39716;-83
2021/04/30 00:03:28;;;;;;;5.37;4.87;;;10.10;41.60;;;;;;6286127;22;39693;-80
2021/04/30 00:05:56;;;;;;;4.77;4.23;;;10.30;41.30;;;;;;6286677;22;39786;-81
2021/04/30 00:08:26;;;;;;;5.30;4.03;;;10.30;40.90;;;;;;6259563;22;36746;-79
2021/04/30 00:10:54;;;;;;;4.50;4.10;;;10.30;40.90;;;;;;6259331;22;37058;-81
2021/04/30 00:13:21;;;;;;;5.60;4.53;;;10.40;40.90;;;;;;6259875;22;38382;-82
2021/04/30 00:15:49;;;;;;;4.83;4.40;;;10.40;40.70;;;;;;6286628;22;38613;-81
2021/04/30 00:18:18;;;;;;;4.90;4.40;;;10.40;40.60;;;;;;6260126;22;36581;-80
2021/04/30 00:20:52;;;;;;;5.23;3.87;;;10.40;40.80;;;;;;6261332;22;36976;-81
2021/04/30 00:23:25;;;;;;;6.10;4.67;;;10.50;40.70;;;;;;6290802;22;39526;-82
2021/04/30 00:25:53;;;;;;;5.10;4.27;;;10.50;40.70;;;;;;6299520;22;39695;-81
2021/04/30 00:28:26;;;;;;;5.27;4.37;;;10.40;40.60;;;;;;6270250;22;37482;-81
2021/04/30 00:30:57;;;;;;;5.90;4.40;;;10.30;40.50;;;;;;6270036;22;36702;-81
2021/04/30 00:33:27;;;;;;;5.63;4.77;;;10.30;40.60;;;;;;6291455;22;40298;-81
2021/04/30 00:35:56;;;;;;;4.80;4.30;;;10.20;41.00;;;;;;6259288;22;38449;-81
2021/04/30 00:38:23;;;;;;;6.90;4.20;;;10.20;41.30;;;;;;6284074;22;38328;-80
2021/04/30 00:40:52;;;;;;;5.10;4.60;;;10.20;41.30;;;;;;6284267;22;38244;-79
2021/04/30 00:43:19;;;;;;;4.73;4.23;;;10.40;41.50;;;;;;6255992;22;38605;-80
2021/04/30 00:45:46;;;;;;;5.70;4.87;;;10.40;43.70;;;;;;6283536;22;39706;-80
2021/04/30 00:48:15;;;;;;;5.30;4.80;;;10.40;44.20;;;;;;6284193;22;38216;-81
2021/04/30 00:50:42;;;;;;;5.70;5.07;;;10.50;44.20;;;;;;6284117;22;38332;-80
2021/04/30 00:53:09;;;;;;;6.03;5.43;;;10.50;44.20;;;;;;6283209;22;40552;-81
2021/04/30 00:55:37;;;;;;;7.23;4.97;;;10.40;43.80;;;;;;6283727;22;39594;-81
2021/04/30 00:58:04;;;;;;;5.20;4.70;;;10.40;44.70;;;;;;6283435;22;39017;-82
2021/04/30 01:00:32;;;;;;;4.97;4.50;;;10.40;44.60;;;;;;6254761;22;36090;-81
2021/04/30 01:03:00;;;;;;;5.27;4.77;;;10.40;44.30;;;;;;6282679;22;40663;-82
2021/04/30 01:05:28;;;;;;;5.10;4.67;;;10.50;44.10;;;;;;6283367;22;38872;-81
2021/04/30 01:07:55;;;;;;;5.50;5.00;;;10.50;43.80;;;;;;6256283;22;37323;-82
2021/04/30 01:10:23;;;;;;;5.33;4.83;;;10.50;43.70;;;;;;6283340;22;38167;-82
2021/04/30 01:12:50;;;;;;;5.10;4.60;;;10.40;43.40;;;;;;6282389;22;39470;-83
2021/04/30 01:15:18;;;;;;;5.90;5.30;;;10.40;43.30;;;;;;6282113;22;38739;-81
2021/04/30 01:17:46;;;;;;;5.23;4.73;;;10.40;43.70;;;;;;6281972;22;37629;-82
2021/04/30 01:20:15;;;;;;;5.20;4.70;;;10.30;43.30;;;;;;6282381;22;36793;-81
2021/04/30 01:22:45;;;;;;;6.53;4.50;;;10.40;43.40;;;;;;6255061;22;39239;-82
2021/04/30 01:25:13;;;;;;;5.97;4.83;;;10.40;43.30;;;;;;6280988;22;39592;-81
2021/04/30 01:27:41;;;;;;;5.30;4.80;;;10.30;43.10;;;;;;6281495;22;38447;-81
2021/04/30 01:30:12;;;;;;;5.40;4.90;;;10.40;43.60;;;;;;6254414;22;37471;-82
2021/04/30 01:32:39;;;;;;;5.67;5.10;;;10.40;44.30;;;;;;6254394;22;38608;-81
2021/04/30 01:35:08;;;;;;;6.17;5.30;;;10.30;44.00;;;;;;6254005;22;37696;-81
2021/04/30 01:37:38;;;;;;;5.90;5.40;;;10.30;43.80;;;;;;6281591;22;38395;-81
2021/04/30 01:40:13;;;;;;;5.97;5.30;;;10.40;43.80;;;;;;6281569;22;38310;-79
2021/04/30 01:43:02;;;;;;;5.47;4.93;;;10.40;43.80;;;;;;6281775;22;39598;-79
2021/04/30 01:45:33;;;;;;;5.93;4.80;;;10.40;43.40;;;;;;6252724;22;37944;-81
2021/04/30 01:48:01;;;;;;;5.07;4.50;;;10.30;43.20;;;;;;6282026;22;38993;-81
2021/04/30 01:50:27;;;;;;;5.10;4.63;;;10.40;43.00;;;;;;6283370;22;38153;-81
2021/04/30 01:52:54;;;;;;;5.20;4.70;;;10.40;42.90;;;;;;6282419;22;39748;-82
2021/04/30 01:55:27;;;;;;;5.10;4.70;;;10.40;42.70;;;;;;6281524;22;39476;-81
2021/04/30 01:57:54;;;;;;;5.00;4.53;;;10.40;43.00;;;;;;6254546;22;37597;-81
2021/04/30 02:00:26;;;;;;;5.40;4.90;;;10.40;43.10;;;;;;6284215;22;37082;-82
2021/04/30 02:02:55;;;;;;;5.27;4.77;;;10.40;43.00;;;;;;6256442;22;39814;-81
2021/04/30 02:05:23;;;;;;;5.90;5.30;;;10.40;42.50;;;;;;6256714;22;37956;-82
2021/04/30 02:07:51;;;;;;;5.57;5.07;;;10.40;42.30;;;;;;6284939;22;38174;-82
2021/04/30 02:10:20;;;;;;;5.57;5.07;;;10.40;43.00;;;;;;6284158;22;37991;-81
2021/04/30 02:12:49;;;;;;;5.37;4.83;;;10.40;44.30;;;;;;6283354;22;39895;-81
2021/04/30 02:15:18;;;;;;;5.60;5.10;;;10.40;45.00;;;;;;6256839;22;37896;-81
2021/04/30 02:17:46;;;;;;;6.00;5.40;;;10.40;44.60;;;;;;6283332;22;39100;-83
2021/04/30 02:20:14;;;;;;;5.53;5.03;;;10.40;44.00;;;;;;6256883;22;36243;-82
2021/04/30 02:22:42;;;;;;;6.47;5.87;;;10.30;43.90;;;;;;6283797;22;40371;-82
2021/04/30 02:25:11;;;;;;;5.63;5.10;;;10.30;44.00;;;;;;6255821;22;38051;-82
2021/04/30 02:27:38;;;;;;;7.07;5.40;;;10.40;44.50;;;;;;6256328;22;37602;-83
2021/04/30 02:30:13;;;;;;;7.33;5.77;;;10.40;44.30;;;;;;6255636;22;36191;-82
2021/04/30 02:32:40;;;;;;;7.40;5.60;;;10.30;43.90;;;;;;6283992;22;40119;-81
2021/04/30 02:35:12;;;;;;;6.63;5.53;;;10.40;42.70;;;;;;6283416;22;39785;-81
2021/04/30 02:37:39;;;;;;;8.90;5.90;;;10.30;43.30;;;;;;6256666;22;36662;-81
2021/04/30 02:40:08;;;;;;;8.83;7.60;;;10.40;45.80;;;;;;6256181;22;37220;-81
2021/04/30 02:42:36;;;;;;;7.20;6.50;;;10.30;47.00;;;;;;6292293;22;39669;-79
2021/04/30 02:45:03;;;;;;;7.90;7.10;;;10.30;48.00;;;;;;6307191;22;39413;-78
2021/04/30 02:47:33;;;;;;;6.97;6.27;;;10.20;48.40;;;;;;6281577;22;38004;-78
2021/04/30 02:50:00;;;;;;;7.90;6.27;;;10.10;48.40;;;;;;6295674;22;37572;-79
2021/04/30 02:52:27;;;;;;;7.10;6.40;;;10.00;47.80;;;;;;6256796;22;38738;-78
2021/04/30 02:54:55;;;;;;;7.47;6.80;;;9.90;48.70;;;;;;6283522;22;39308;-78
2021/04/30 02:57:23;;;;;;;7.40;6.70;;;9.90;49.70;;;;;;6255393;22;38317;-77
2021/04/30 02:59:50;;;;;;;6.93;6.17;;;9.90;49.30;;;;;;6283399;22;37268;-79
2021/04/30 03:02:17;;;;;;;6.87;5.87;;;9.90;49.00;;;;;;6283698;22;40830;-78
2021/04/30 03:04:45;;;;;;;6.97;6.27;;;9.90;48.60;;;;;;6283278;22;39822;-78
2021/04/30 03:07:12;;;;;;;6.03;5.43;;;9.90;48.30;;;;;;6255864;22;36859;-79
2021/04/30 03:09:39;;;;;;;8.00;5.87;;;9.80;47.20;;;;;;6283715;22;38085;-80
2021/04/30 03:12:09;;;;;;;7.50;6.60;;;9.80;47.10;;;;;;6255017;22;38171;-79
2021/04/30 03:14:36;;;;;;;7.30;6.00;;;9.80;47.40;;;;;;6282997;22;40026;-80
2021/04/30 03:17:04;;;;;;;7.20;6.10;;;9.80;48.80;;;;;;6282704;22;38375;-79
2021/04/30 03:19:31;;;;;;;7.13;6.43;;;9.80;49.70;;;;;;6255865;22;35758;-79
2021/04/30 03:21:59;;;;;;;8.77;6.63;;;9.80;50.10;;;;;;6283145;22;39790;-79
2021/04/30 03:24:28;;;;;;;7.30;6.60;;;9.80;50.80;;;;;;6282633;22;39555;-80
2021/04/30 03:26:55;;;;;;;8.53;7.37;;;9.80;50.80;;;;;;6255457;22;36929;-80
2021/04/30 03:29:22;;;;;;;7.70;7.00;;;9.80;50.70;;;;;;6283966;22;38100;-80
2021/04/30 03:31:49;;;;;;;8.33;7.53;;;9.80;50.80;;;;;;6287043;22;39886;-82
2021/04/30 03:34:16;;;;;;;8.70;7.63;;;9.70;50.20;;;;;;6289451;22;40056;-81
2021/04/30 03:36:43;;;;;;;8.77;7.30;;;9.60;49.90;;;;;;6257478;22;36619;-80
2021/04/30 03:39:13;;;;;;;7.47;6.77;;;9.50;50.10;;;;;;6283065;22;37107;-79
2021/04/30 03:41:40;;;;;;;9.13;7.50;;;9.60;50.40;;;;;;6282852;22;39758;-79
2021/04/30 03:44:08;;;;;;;8.97;7.50;;;9.70;50.80;;;;;;6282550;22;39223;-79
2021/04/30 03:46:35;;;;;;;8.47;7.20;;;9.70;50.90;;;;;;6282333;22;38452;-80
2021/04/30 03:49:02;;;;;;;7.30;6.60;;;9.70;51.20;;;;;;6282424;22;37669;-79
2021/04/30 03:51:29;;;;;;;8.67;7.27;;;9.70;51.30;;;;;;6255031;22;39516;-79
2021/04/30 03:53:56;;;;;;;8.87;7.40;;;9.80;51.30;;;;;;6254718;22;37567;-79
2021/04/30 03:56:24;;;;;;;8.40;7.50;;;9.80;51.60;;;;;;6255540;22;37595;-80
2021/04/30 03:58:51;;;;;;;8.27;7.53;;;9.80;51.50;;;;;;6283122;22;36876;-80
2021/04/30 04:01:18;;;;;;;8.00;7.07;;;9.90;51.40;;;;;;6255257;22;39410;-80
2021/04/30 04:03:47;;;;;;;7.67;6.87;;;9.90;51.30;;;;;;6280058;22;39624;-79
2021/04/30 04:06:14;;;;;;;9.17;8.00;;;9.80;51.10;;;;;;6281471;22;37599;-79
2021/04/30 04:08:41;;;;;;;9.20;7.90;;;9.90;51.30;;;;;;6281433;22;36974;-80
2021/04/30 04:11:08;;;;;;;9.03;8.10;;;9.80;50.80;;;;;;6281220;22;39756;-80
2021/04/30 04:13:37;;;;;;;9.50;8.37;;;9.90;50.30;;;;;;6252773;22;37824;-80
2021/04/30 04:16:06;;;;;;;9.43;8.20;;;9.80;49.60;;;;;;6252974;22;36719;-80
2021/04/30 04:18:33;;;;;;;9.40;8.27;;;9.80;49.90;;;;;;6253568;22;37468;-80
2021/04/30 04:21:00;;;;;;;8.87;7.97;;;9.80;50.10;;;;;;6280425;22;40448;-79
2021/04/30 04:23:27;;;;;;;9.83;7.90;;;9.90;50.20;;;;;;6253112;22;37942;-79
2021/04/30 04:25:54;;;;;;;8.10;7.30;;;9.90;50.00;;;;;;6280535;22;38118;-79
2021/04/30 04:28:22;;;;;;;10.57;7.83;;;9.80;49.60;;;;;;6253163;22;35669;-79
2021/04/30 04:30:52;;;;;;;9.10;7.80;;;9.80;49.90;;;;;;6280099;22;40665;-80
2021/04/30 04:33:19;;;;;;;8.53;7.30;;;9.90;50.00;;;;;;6280715;22;38723;-80
2021/04/30 04:35:46;;;;;;;9.27;7.40;;;9.90;50.80;;;;;;6281226;22;38859;-80
2021/04/30 04:38:13;;;;;;;8.47;7.57;;;9.90;51.50;;;;;;6282236;22;38012;-80
2021/04/30 04:40:40;;;;;;;8.33;7.53;;;9.90;51.80;;;;;;6282078;22;39643;-79
2021/04/30 04:43:07;;;;;;;9.67;8.03;;;9.90;52.30;;;;;;6254689;22;37751;-79
2021/04/30 04:45:34;;;;;;;9.43;8.43;;;9.90;52.50;;;;;;6280700;22;38617;-79
2021/04/30 04:48:02;;;;;;;8.27;7.47;;;9.80;52.70;;;;;;6254496;22;36826;-79
2021/04/30 04:50:30;;;;;;;8.73;7.83;;;9.80;52.70;;;;;;6282495;22;39949;-79
2021/04/30 04:52:57;;;;;;;9.23;8.30;;;9.80;52.10;;;;;;6282195;22;39047;-80
2021/04/30 04:55:24;;;;;;;8.70;7.80;;;9.80;52.10;;;;;;6284743;22;37773;-79
2021/04/30 04:57:51;;;;;;;9.30;8.30;;;9.90;51.80;;;;;;6305848;22;37726;-80
2021/04/30 05:00:19;;;;;;;10.47;8.27;;;9.90;50.90;;;;;;6286519;22;41092;-80
2021/04/30 05:02:46;;;;;;;9.73;8.73;;;10.00;49.10;;;;;;6308140;22;40532;-80
2021/04/30 05:05:15;;;;;;;8.57;7.77;;;10.00;48.00;;;;;;6288937;22;38545;-81
2021/04/30 05:07:42;;;;;;;8.67;7.77;;;10.00;47.50;;;;;;6254746;22;35988;-82
2021/04/30 05:10:10;;;;;;;10.37;7.77;;;10.10;46.70;;;;;;6254824;22;38513;-82
2021/04/30 05:12:37;;;;;;;8.40;7.50;;;10.00;46.40;;;;;;6282997;22;38882;-82
2021/04/30 05:15:05;;;;;;;8.00;7.20;;;10.00;46.20;;;;;;6283574;22;38647;-81
2021/04/30 05:17:32;;;;;;;8.50;7.60;;;9.90;45.60;;;;;;6286162;22;37966;-81
2021/04/30 05:19:59;;;;;;;8.73;7.93;;;9.80;46.40;;;;;;6290659;22;39955;-84
2021/04/30 05:22:27;;;;;;;9.33;8.00;;;9.90;46.90;;;;;;6292532;22;38603;-80
2021/04/30 05:24:55;;;;;;;7.60;6.70;;;9.90;47.30;;;;;;6266465;22;38439;-83
2021/04/30 05:27:22;;;;;;;8.63;7.83;;;9.90;47.10;;;;;;6293420;22;36945;-83
2021/04/30 05:29:52;;;;;;;9.50;8.07;;;10.00;45.90;;;;;;6260896;22;38533;-84
2021/04/30 05:32:22;;;;;;;8.77;7.70;;;10.00;46.60;;;;;;6292899;22;38863;-84
2021/04/30 05:34:49;;;;;;;9.50;6.77;;;10.10;46.00;;;;;;6285090;22;38477;-83
2021/04/30 05:37:16;;;;;;;7.73;7.00;;;10.10;45.60;;;;;;6284527;22;37116;-82
2021/04/30 05:39:44;;;;;;;9.13;7.67;;;10.10;45.90;;;;;;6286950;22;39988;-82
2021/04/30 05:42:11;;;;;;;8.37;7.50;;;10.20;45.30;;;;;;6254767;22;37751;-81
2021/04/30 05:44:38;;;;;;;9.83;8.03;;;10.30;45.90;;;;;;6282265;22;39107;-83
2021/04/30 05:47:05;;;;;;;8.90;7.43;;;10.30;45.00;;;;;;6254381;22;35748;-82
2021/04/30 05:49:32;;;;;;;8.17;7.37;;;10.40;44.20;;;;;;6255160;22;38276;-83
2021/04/30 05:51:59;;;;;;;10.67;8.47;;;10.40;43.90;;;;;;6257781;22;37784;-83
2021/04/30 05:54:26;;;;;;;10.73;8.07;;;10.40;43.80;;;;;;6257336;22;37960;-83
2021/04/30 05:56:54;;;;;;;8.50;7.60;;;10.50;44.10;;;;;;6256801;22;36270;-83
2021/04/30 05:59:21;;;;;;;12.23;7.87;;;10.60;43.60;;;;;;6284786;22;39470;-84
2021/04/30 06:01:50;;;;;;;10.60;7.50;;;10.70;43.30;;;;;;6283828;22;39109;-83
2021/04/30 06:04:18;;;;;;;8.20;7.40;;;10.90;42.80;;;;;;6284405;22;37826;-82
2021/04/30 06:06:50;;;;;;;8.13;7.33;;;11.00;42.60;;;;;;6284268;22;37940;-82
2021/04/30 06:09:17;;;;;;;8.40;7.23;;;11.20;41.30;;;;;;6282660;22;39844;-81
2021/04/30 06:11:45;;;;;;;7.40;6.70;;;11.40;40.50;;;;;;6282522;22;38985;-81
2021/04/30 06:14:13;;;;;;;7.90;7.10;;;11.80;41.00;;;;;;6254900;22;36759;-83
2021/04/30 06:16:40;;;;;;;8.70;7.80;;;12.40;40.30;;;;;;6282319;22;37430;-82
2021/04/30 06:19:10;;;;;;;8.67;7.80;;;13.10;39.10;;;;;;6283462;22;39335;-83
2021/04/30 06:21:37;;;;;;;8.90;7.27;;;13.90;37.50;;;;;;6257427;22;38599;-83
2021/04/30 06:24:05;;;;;;;13.80;6.93;;;14.90;36.20;;;;;;6257647;22;36828;-83
2021/04/30 06:26:32;;;;;;;7.37;6.67;;;15.70;35.50;;;;;;6284600;22;37351;-83
2021/04/30 06:29:00;;;;;;;7.37;6.73;;;16.20;34.10;;;;;;6283948;22;40213;-82
2021/04/30 06:31:28;;;;;;;7.70;7.00;;;17.00;31.80;;;;;;6258206;22;38929;-84
2021/04/30 06:33:55;;;;;;;13.40;6.93;;;17.60;30.60;;;;;;6297972;22;38214;-83
2021/04/30 06:40:11;;;;;;;7.80;6.90;;;17.60;30.20;;;;;;6311964;22;42720;-83
2021/04/30 06:42:39;;;;;;;8.63;7.57;;;16.90;30.90;;;;;;6270294;22;38849;-82
2021/04/30 06:45:08;;;;;;;10.03;7.43;;;16.30;31.70;;;;;;6259379;22;37783;-82
2021/04/30 06:47:36;;;;;;;7.50;6.80;;;15.30;33.10;;;;;;6287639;22;37048;-83
2021/04/30 06:50:09;;;;;;;11.23;8.13;;;14.70;34.50;;;;;;6285259;22;39753;-82
2021/04/30 06:52:38;;;;;;;7.50;6.67;;;14.30;35.00;;;;;;6284436;22;39168;-83
2021/04/30 06:55:07;;;;;;;8.27;6.70;;;13.70;36.60;;;;;;6285572;22;38127;-82
2021/04/30 06:57:34;;;;;;;8.50;7.50;;;13.40;37.10;;;;;;6284319;22;37326;-82
2021/04/30 07:00:02;;;;;;;10.10;8.40;;;13.20;37.90;;;;;;6282985;22;40549;-83
2021/04/30 07:02:29;;;;;;;10.33;8.00;;;13.20;38.00;;;;;;6257621;22;38367;-83
2021/04/30 07:04:58;;;;;;;7.83;7.00;;;13.10;38.10;;;;;;6285591;22;38640;-83
2021/04/30 07:07:27;;;;;;;7.97;7.07;;;13.00;37.60;;;;;;6286322;22;36844;-83
2021/04/30 07:09:56;;;;;;;12.73;6.80;;;12.80;37.50;;;;;;6257503;22;38746;-84
2021/04/30 07:12:23;;;;;;;13.13;8.10;;;12.80;38.30;;;;;;6284987;22;39193;-83
2021/04/30 07:14:54;;;;;;;11.43;7.47;;;12.80;38.30;;;;;;6286864;22;38267;-84
2021/04/30 07:17:21;;;;;;;8.57;7.67;;;12.80;38.30;;;;;;6287159;22;36718;-84
2021/04/30 07:19:48;;;;;;;8.33;7.10;;;12.80;38.30;;;;;;6286562;22;39630;-84
2021/04/30 07:22:23;;;;;;;8.90;7.70;;;12.80;38.30;;;;;;6259793;22;37480;-83
2021/04/30 07:24:56;;;;;;;8.73;7.23;;;12.60;38.40;;;;;;6286344;22;38240;-85
2021/04/30 07:27:26;;;;;;;8.73;7.83;;;12.60;39.00;;;;;;6286452;22;36857;-84
2021/04/30 07:29:55;;;;;;;19.53;8.87;;;12.30;39.60;;;;;;6286635;22;39755;-83
2021/04/30 07:32:28;;;;;;;12.03;8.27;;;12.10;39.70;;;;;;6261767;22;38168;-81
2021/04/30 07:34:55;;;;;;;8.97;7.97;;;12.10;40.00;;;;;;6259107;22;36724;-82
2021/04/30 07:37:23;;;;;;;9.50;7.53;;;12.10;40.10;;;;;;6290530;22;37349;-82
2021/04/30 07:39:53;;;;;;;11.30;7.77;;;12.20;40.60;;;;;;6293354;22;39549;-83
2021/04/30 07:42:24;;;;;;;9.33;7.07;;;12.40;40.60;;;;;;6234747;22;37900;-82
2021/04/30 07:44:51;;;;;;;11.70;7.87;;;12.60;40.90;;;;;;6284658;22;37841;-82
2021/04/30 07:47:43;;;;;;;8.97;8.07;;;12.70;40.40;;;;;;6283615;22;37720;-84
2021/04/30 07:50:10;;;;;;;14.57;7.63;;;13.00;40.80;;;;;;6257200;22;38688;-83
2021/04/30 07:52:42;;;;;;;8.30;7.50;;;13.40;40.50;;;;;;6288681;22;39415;-84
2021/04/30 07:55:11;;;;;;;8.90;8.10;;;13.80;39.30;;;;;;6292701;22;38197;-83
2021/04/30 07:57:40;;;;;;;8.37;7.63;;;14.10;37.30;;;;;;6261155;22;36244;-83
2021/04/30 08:00:10;;;;;;;15.10;9.13;;;14.10;37.10;;;;;;6293896;22;39926;-83
2021/04/30 08:02:42;;;;;;;9.93;7.83;;;14.10;37.40;;;;;;6294363;22;39573;-84
2021/04/30 08:05:11;;;;;;;9.40;8.43;;;14.10;37.40;;;;;;6286153;22;38005;-84
2021/04/30 08:07:40;;;;;;;11.03;8.00;;;13.90;36.70;;;;;;6289032;22;37172;-85
2021/04/30 08:10:10;;;;;;;8.73;7.90;;;13.90;37.30;;;;;;6263285;22;38124;-84
2021/04/30 08:12:37;;;;;;;8.87;8.07;;;13.80;36.60;;;;;;6297071;22;39306;-85
2021/04/30 08:15:06;;;;;;;9.10;8.20;;;13.80;37.20;;;;;;6291819;22;38239;-83
2021/04/30 08:17:33;;;;;;;9.30;8.40;;;14.10;37.40;;;;;;6288665;22;37078;-84
2021/04/30 08:20:04;;;;;;;9.20;8.10;;;14.50;37.00;;;;;;6287027;22;39586;-84
2021/04/30 08:22:32;;;;;;;11.30;9.03;;;14.90;35.90;;;;;;6289878;22;39970;-84
2021/04/30 08:24:59;;;;;;;10.17;8.80;;;15.00;35.20;;;;;;6262088;22;36779;-84
2021/04/30 08:27:30;;;;;;;9.90;8.50;;;14.80;35.00;;;;;;6288307;22;39188;-82
2021/04/30 08:29:57;;;;;;;16.03;9.30;;;14.70;35.40;;;;;;6291039;22;39515;-83
2021/04/30 08:32:24;;;;;;;9.30;7.93;;;14.70;35.60;;;;;;6290624;22;38929;-83
2021/04/30 08:34:51;;;;;;;9.00;8.10;;;14.80;35.80;;;;;;6261192;22;36829;-83
2021/04/30 08:37:19;;;;;;;9.73;8.57;;;14.70;35.80;;;;;;6284101;22;37143;-83
2021/04/30 08:39:48;;;;;;;9.17;8.20;;;14.50;35.50;;;;;;6285611;22;40358;-84
2021/04/30 08:42:17;;;;;;;9.60;8.70;;;14.30;36.00;;;;;;6286388;22;38556;-84
2021/04/30 08:44:48;;;;;;;8.67;7.77;;;14.10;36.10;;;;;;6259290;22;36780;-84
2021/04/30 08:47:19;;;;;;;12.70;8.30;;;14.00;36.80;;;;;;6284963;22;37398;-85
2021/04/30 08:49:46;;;;;;;10.30;8.67;;;14.00;37.40;;;;;;6260592;22;38777;-85
2021/04/30 08:52:16;;;;;;;9.60;8.60;;;14.10;36.60;;;;;;6301380;22;40253;-84
2021/04/30 08:55:07;;;;;;;8.80;8.00;;;14.10;36.80;;;;;;6285476;22;37803;-82
2021/04/30 08:57:35;;;;;;;9.43;8.53;;;14.30;36.50;;;;;;6285666;22;36690;-83
2021/04/30 09:00:05;;;;;;;12.13;7.90;;;14.60;36.20;;;;;;6278924;22;38984;-82
2021/04/30 09:02:35;;;;;;;10.60;8.70;;;15.10;35.90;;;;;;6291393;22;39399;-84
2021/04/30 09:05:02;;;;;;;19.13;8.63;;;15.70;35.40;;;;;;6261840;22;37371;-83
2021/04/30 09:07:40;;;;;;;16.53;9.77;;;16.40;33.70;;;;;;6265756;22;36996;-83
2021/04/30 09:10:12;;;;;;;9.07;8.17;;;16.70;33.20;;;;;;6268908;22;38444;-83
2021/04/30 09:12:40;;;;;;;11.10;9.00;;;17.00;32.10;;;;;;6294976;22;39408;-84
2021/04/30 09:15:19;;;;;;;10.13;8.90;;;16.60;32.30;;;;;;6265854;22;37359;-83
2021/04/30 09:17:49;;;;;;;9.90;8.83;;;16.70;32.40;;;;;;6293733;22;37448;-82
2021/04/30 09:20:16;;;;;;;11.53;9.10;;;16.40;32.90;;;;;;6290195;22;39684;-83
2021/04/30 09:22:44;;;;;;;10.73;9.60;;;16.70;32.60;;;;;;6289493;22;39180;-83
2021/04/30 09:25:15;;;;;;;10.63;9.53;;;16.90;31.30;;;;;;6290151;22;38473;-84
2021/04/30 09:27:44;;;;;;;10.40;8.80;;;17.00;32.10;;;;;;6286415;22;37267;-84
2021/04/30 09:30:26;;;;;;;11.23;9.77;;;17.10;31.10;;;;;;6266526;22;38778;-84
2021/04/30 09:33:11;;;;;;;12.83;8.73;;;16.80;30.50;;;;;;6295748;22;39240;-83
2021/04/30 09:35:42;;;;;;;10.77;9.67;;;16.40;31.60;;;;;;6269311;22;36813;-84
2021/04/30 09:38:27;;;;;;;11.20;9.03;;;16.20;31.60;;;;;;6266849;22;36073;-84
2021/04/30 09:41:09;;;;;;;11.03;7.97;;;16.10;32.40;;;;;;6261805;22;39560;-84
2021/04/30 09:43:44;;;;;;;9.50;8.50;;;16.20;32.60;;;;;;6287128;22;38812;-84
2021/04/30 09:46:27;;;;;;;9.90;8.90;;;16.20;32.10;;;;;;6268492;22;38874;-84
2021/04/30 09:48:59;;;;;;;9.63;8.70;;;16.20;32.10;;;;;;6275060;22;36238;-84
2021/04/30 09:51:47;;;;;;;10.03;8.20;;;16.10;32.00;;;;;;6291715;22;39971;-84
2021/04/30 09:54:19;;;;;;;10.47;8.17;;;16.10;32.10;;;;;;6290110;22;39444;-83
2021/04/30 09:56:47;;;;;;;9.30;8.40;;;16.20;32.10;;;;;;6266098;22;38125;-85
2021/04/30 09:59:23;;;;;;;10.03;7.83;;;16.30;31.90;;;;;;6263309;22;35793;-85
2021/04/30 10:02:09;;;;;;;9.33;8.43;;;16.50;31.90;;;;;;6259669;22;38488;-85
2021/04/30 10:04:37;;;;;;;9.20;7.63;;;16.80;31.90;;;;;;6287158;22;38948;-85
2021/04/30 10:07:07;;;;;;;8.00;7.07;;;17.20;31.20;;;;;;6287216;22;38082;-85
2021/04/30 10:09:36;;;;;;;11.60;8.57;;;17.30;31.50;;;;;;6260099;22;35705;-84
2021/04/30 10:12:24;;;;;;;9.17;7.80;;;17.40;30.80;;;;;;6260726;22;40205;-85
2021/04/30 10:14:54;;;;;;;7.77;6.90;;;17.60;30.30;;;;;;6290116;22;38687;-84
2021/04/30 10:17:23;;;;;;;8.43;6.83;;;18.20;29.90;;;;;;6266090;22;37018;-85
2021/04/30 10:19:52;;;;;;;7.63;6.67;;;19.00;29.30;;;;;;6289511;22;37653;-85
2021/04/30 10:22:21;;;;;;;7.93;7.17;;;19.90;28.40;;;;;;6264101;22;38989;-84
2021/04/30 10:24:52;;;;;;;9.10;7.67;;;20.50;27.20;;;;;;6294112;22;38756;-84
2021/04/30 10:27:26;;;;;;;7.00;6.30;;;20.80;27.30;;;;;;6265378;22;37524;-83
2021/04/30 10:30:08;;;;;;;7.87;7.20;;;20.70;26.60;;;;;;6287239;22;37422;-83
2021/04/30 10:32:40;;;;;;;15.67;7.53;;;20.00;27.00;;;;;;6290180;22;39943;-84
2021/04/30 10:35:12;;;;;;;7.60;6.90;;;19.50;26.90;;;;;;6287836;22;40037;-84
2021/04/30 10:37:42;;;;;;;7.50;6.67;;;18.60;27.50;;;;;;6260220;22;38684;-83
2021/04/30 10:40:14;;;;;;;8.77;7.40;;;17.80;28.40;;;;;;6289423;22;38397;-85
2021/04/30 10:42:45;;;;;;;8.50;7.60;;;17.00;29.10;;;;;;6285615;22;39485;-84
2021/04/30 10:45:16;;;;;;;9.13;8.13;;;16.70;30.00;;;;;;6288472;22;38975;-84
2021/04/30 10:48:05;;;;;;;8.97;8.03;;;16.60;30.20;;;;;;6296324;22;38355;-83
2021/04/30 10:50:32;;;;;;;9.10;8.20;;;16.20;30.60;;;;;;6272255;22;36744;-85
2021/04/30 10:53:24;;;;;;;10.60;9.40;;;15.90;30.90;;;;;;6293750;22;40061;-84
2021/04/30 10:55:53;;;;;;;10.50;8.60;;;15.40;31.40;;;;;;6260325;22;39289;-83
2021/04/30 10:58:35;;;;;;;14.83;8.97;;;15.10;31.70;;;;;;6259214;22;37299;-83
2021/04/30 11:01:25;;;;;;;9.60;8.60;;;14.80;33.30;;;;;;6287777;22;37232;-83
2021/04/30 11:04:17;;;;;;;9.80;8.80;;;14.30;36.00;;;;;;6297502;22;39910;-83
2021/04/30 11:06:51;;;;;;;10.53;9.50;;;14.10;37.00;;;;;;6308620;22;39548;-84
2021/04/30 11:09:36;;;;;;;12.33;10.33;;;13.70;40.20;;;;;;6257877;22;38025;-83
2021/04/30 11:12:20;;;;;;;11.70;10.50;;;13.30;42.10;;;;;;6272627;22;36913;-84
2021/04/30 11:15:08;;;;;;;12.40;10.47;;;12.90;43.20;;;;;;6293530;22;40899;-83
2021/04/30 11:17:52;;;;;;;11.00;9.77;;;12.50;43.70;;;;;;6289204;22;39436;-83
2021/04/30 11:20:25;;;;;;;13.33;10.40;;;12.30;45.20;;;;;;6259328;22;37077;-83
2021/04/30 11:23:14;;;;;;;13.77;11.87;;;12.30;46.20;;;;;;6286860;22;38110;-84
2021/04/30 11:26:07;;;;;;;16.90;10.50;;;12.30;46.80;;;;;;6291080;22;40267;-84
2021/04/30 11:29:06;;;;;;;11.23;9.57;;;12.30;45.50;;;;;;6268140;22;39098;-86
2021/04/30 11:31:34;;;;;;;17.70;10.57;;;12.20;45.70;;;;;;6292640;22;39142;-83
2021/04/30 11:34:24;;;;;;;14.80;10.30;;;12.30;48.20;;;;;;6291267;22;37639;-83
2021/04/30 11:36:58;;;;;;;13.50;11.77;;;12.40;47.90;;;;;;6260015;22;38654;-83
2021/04/30 11:39:29;;;;;;;13.20;11.00;;;12.30;47.30;;;;;;6260193;22;38727;-83
2021/04/30 11:42:00;;;;;;;12.13;10.70;;;12.40;47.70;;;;;;6287108;22;38844;-86
2021/04/30 11:44:37;;;;;;;12.53;10.97;;;12.40;46.90;;;;;;6286890;22;37965;-86
2021/04/30 11:47:08;;;;;;;13.70;11.67;;;12.50;47.30;;;;;;6261214;22;39757;-85
2021/04/30 11:49:37;;;;;;;12.50;11.20;;;12.60;47.50;;;;;;6287302;22;39538;-85
2021/04/30 11:52:06;;;;;;;12.43;11.13;;;12.70;47.20;;;;;;6289005;22;38611;-85
2021/04/30 11:54:35;;;;;;;14.20;12.20;;;12.70;46.10;;;;;;6297499;22;38372;-84
2021/04/30 11:57:05;;;;;;;12.97;11.67;;;12.80;46.40;;;;;;6267107;22;38442;-84
2021/04/30 11:59:33;;;;;;;13.00;11.00;;;12.70;45.30;;;;;;6287014;22;39173;-84
2021/04/30 12:02:04;;;;;;;15.03;12.00;;;12.70;45.40;;;;;;6286587;22;38103;-86
2021/04/30 12:04:42;;;;;;;14.77;12.20;;;12.50;46.40;;;;;;6286410;22;38085;-85
2021/04/30 12:07:14;;;;;;;16.67;13.90;;;12.30;46.50;;;;;;6258533;22;39189;-85
2021/04/30 12:09:44;;;;;;;15.40;12.10;;;12.10;47.80;;;;;;6257968;22;38075;-83
2021/04/30 12:12:15;;;;;;;20.33;15.13;;;11.80;48.00;;;;;;6258051;22;38075;-84
2021/04/30 12:14:47;;;;;;;17.20;13.83;;;11.70;48.90;;;;;;6258564;22;36167;-85
2021/04/30 12:17:25;;;;;;;17.00;14.27;;;11.50;48.40;;;;;;6282735;22;38572;-84
2021/04/30 12:19:57;;;;;;;15.03;12.00;;;11.40;49.80;;;;;;6285717;22;38854;-83
2021/04/30 12:22:26;;;;;;;19.33;12.00;;;11.10;48.00;;;;;;6257814;22;37075;-82
2021/04/30 12:24:53;;;;;;;13.70;11.27;;;10.90;48.20;;;;;;6285596;22;38548;-82
2021/04/30 12:27:27;;;;;;;16.00;12.37;;;10.90;49.80;;;;;;6285349;22;40057;-84
2021/04/30 12:29:55;;;;;;;16.57;13.23;;;10.90;49.10;;;;;;6286048;22;38579;-83
2021/04/30 12:32:26;;;;;;;15.10;13.00;;;10.90;49.90;;;;;;6285960;22;38464;-83
2021/04/30 12:34:56;;;;;;;16.97;13.00;;;11.00;50.00;;;;;;6288231;22;38749;-84
2021/04/30 12:37:24;;;;;;;16.40;12.00;;;10.90;49.90;;;;;;6288831;22;39564;-84
2021/04/30 12:39:54;;;;;;;16.23;12.90;;;11.00;50.70;;;;;;6258040;22;37882;-82
2021/04/30 12:42:21;;;;;;;15.60;12.83;;;10.90;48.50;;;;;;6257834;22;36859;-83
2021/04/30 12:44:52;;;;;;;16.13;12.77;;;10.80;51.00;;;;;;6260182;22;35940;-83
2021/04/30 12:47:19;;;;;;;16.00;11.70;;;11.00;50.50;;;;;;6286189;22;39444;-83
2021/04/30 12:49:47;;;;;;;14.87;12.10;;;10.90;49.30;;;;;;6285519;22;38750;-84
2021/04/30 12:52:15;;;;;;;16.50;13.20;;;10.80;49.30;;;;;;6284748;22;38852;-82
2021/04/30 12:54:42;;;;;;;18.20;13.70;;;10.90;52.10;;;;;;6284754;22;37531;-82
2021/04/30 12:57:11;;;;;;;17.47;13.30;;;11.10;51.20;;;;;;6259273;22;38219;-83
2021/04/30 12:59:56;;;;;;;15.10;13.40;;;11.20;50.40;;;;;;6261418;22;37686;-83
2021/04/30 13:02:29;;;;;;;14.37;12.83;;;11.40;51.70;;;;;;6288489;22;38320;-83